Hundvaag 1 weather for Aug 2009
Month no. 266
Obs.
Da.
Temp. Dew Point Precip. Wind
Speed
Wind gusts Cloud cover Press. Humidity Wind dir. Sunny OPT
01.08.2009 12,9 11,2 4,5 3,2   2 1016,1 89,0     70,7 %
02.08.2009 16,4 11,1 0,4 6,4   10 1008,0 71,0   1 92,5 %
03.08.2009 14,7 14,3 4,1 0,0   2 1011,7 97,0     71,2 %
04.08.2009 13,8 13,2 0,0 1,6   10 1018,5 96,0   1 92,5 %
05.08.2009 16,1 7,0 0,0 4,8   10 1021,2 55,0 157,5 1 92,5 %
06.08.2009 18,3 12,1 3,3 8,0   3 1022,6 67,0   1 72,7 %
07.08.2009 20,4 14,3 0,0 1,6   10 1021,6 68,0 180,0 1 100,0 %
08.08.2009 17,0 15,8 2,4 4,8   4 1017,2 93,0   1 78,0 %
09.08.2009 15,8 13,8 3,1 1,6   3 1022,2 88,0   1 75,7 %
10.08.2009 15,2 13,1 0,0 0,4 0,0 7 1017,2 85,0 292,5 1 87,5 %
11.08.2009 15,4 14,2 3,0 0,0 0,0 1 1013,2 83,0 180,0 1 70,0 %
12.08.2009 14,2 11,7 0,6 0,0 0,0 3 1012,1 85,0 135,0 1 75,0 %
13.08.2009 14,1 9,7 0,2 20,4 20,4 9 1012,4 75,0 270,0 1 77,5 %
14.08.2009 12,1 8,0 0,5 0,0 0,0 4 1017,8 76,0 270,0 1 75,0 %
15.08.2009 13,8 10,4 9,0 14,8 14,8 0 1008,4 80,0 180,0   50,0 %
16.08.2009 15,0 12,7 22,5 11,1 11,1 0 1001,9 86,0 157,5 1 45,0 %
17.08.2009 13,8 11,8 10,6 3,7 3,7 1 1006,3 88,0 247,5 1 60,0 %
18.08.2009 12,9 8,9 2,5 7,4 7,6 2 1015,8 77,0 315,0 1 67,5 %
19.08.2009 14,2 10,0 0,1 3,7 3,7 4 1020,5 76,0 112,5 1 75,0 %
20.08.2009 18,7 13,6 0,0 5,6 6,4 2 1015,5 72,0 180,0   75,0 %
21.08.2009 15,1 12,8 7,5 3,7 4,0 3 1014,1 86,0 157,5 1 70,0 %
22.08.2009 12,4 9,9 15,6 1,9 4,2 8 1017,8 85,0 135,0 1 72,5 %
23.08.2009 12,7 10,6 6,1 7,4 8,2 3 1023,9 87,0 135,0 1 65,0 %
24.08.2009 16,6 10,0 0,0 18,5 19,5 3 1016,1 65,0 135,0 1 65,0 %
25.08.2009 18,3 11,4 0,0 5,6 7,9 4 1007,3 64,0 135,0 1 80,0 %
26.08.2009 13,3 10,7 2,7 0,0 0,0 8 1010,4 84,0 180,0 1 87,5 %
27.08.2009 16,3 14,1 7,0 5,6 6,0 2 1007,0 87,0 157,5   67,5 %
28.08.2009 14,9 12,4 6,3 16,7 17,2 0 1003,3 85,0 157,5 1 52,5 %
29.08.2009 11,9 8,9 12,5 3,7 11,7 3 999,5 82,0 135,0 1 60,0 %
30.08.2009 11,8 9,9 13,7 9,3 9,7 3 1006,7 88,0 270,0 1 57,5 %
31.08.2009 13,7 11,2 0,5 3,7 3,7 0 1009,7 85,0 135,0   65,0 %
Avrg/Sum 14,9 11,6 138,7 5,7 7,3 4,0 1013,4 80,8 183,8 25 72,4 %